ニューヨーク/JFK の空港の天気 - METARとTAF

ジョン・F・ケネディ国際空港 ( KJFK / JFK ) - アメリカ ニューヨーク州ニューヨーク
飛行場実況気象(Metar)
観測時間12/16 16:51 EST (12/16 21:51 UTC)
風向・風速北北東 5m/s
視程4850m
天気現象雨 もや
少しの雲 雲底高度 180m
全天の8割程度の雲 雲底高度 340m
全天を覆う雲 雲底高度 490m
気温5℃
湿度100%
気圧1009.5hPa
METARKJFK 162151Z 02010KT 3SM RA BR FEW006 BKN011 OVC016 05/05 A2981 RMK AO2 SLP095 P0004 T00500050
過去の天気等 Google飛行場航空写真 Wunderground天気予報

過去48時間のMETAR

飛行場予報(TAF)
発表時間: 12/16 17:04 EST (12/16 22:04 UTC)
予報対象時間: 16日17時 EST ~ 17日19時 EST
風向・風速北北東 6m/s 瞬間風速 11m/s
視程4830m
天気現象弱い雨 もや
全天の8割程度の雲 雲底高度 300m
全天の8割程度の雲 雲底高度 460m
全天を覆う雲 雲底高度 760m
16日17時 EST ~ 16日19時 EST に一時的に
視程3220m
天気現象弱い雨 もや
全天の8割程度の雲 雲底高度 270m
16日19時 EST から
風向・風速北 8m/s 瞬間風速 12m/s
視程3220m
天気現象弱い雨 もや
全天を覆う雲 雲底高度 300m
17日4時 EST から
風向・風速北北西 7m/s 瞬間風速 10m/s
視程10km以上
全天の8割程度の雲 雲底高度 610m
全天を覆う雲 雲底高度 1070m
17日8時 EST から
風向・風速西北西 6m/s 瞬間風速 10m/s
視程10km以上
全天の4割程度の雲 雲底高度 1070m
全天の8割程度の雲 雲底高度 1520m
17日13時 EST から
風向・風速北西 10m/s 瞬間風速 17m/s
視程10km以上
全天の8割程度の雲 雲底高度 1070m
KJFK 162204Z 1622/1724 03011G22KT 3SM -RA BR BKN010 BKN015 OVC025
TEMPO 1622/1624 2SM -RA BR BKN009
FM170000 01015G24KT 2SM -RA BR OVC010
FM170900 33014G20KT P6SM BKN020 OVC035
FM171300 30012G20KT P6SM SCT035 BKN050
FM171800 31019G33KT P6SM BKN035